sensor_id;sensor_type;location;lat;lon;timestamp;P1;durP1;ratioP1;P2;durP2;ratioP2
75620;SDS011;64574;48.506;-2.750;2022-12-26T00:00:12;11.35;;;1.75;;
75620;SDS011;64574;48.506;-2.750;2022-12-26T00:02:40;9.88;;;1.40;;
75620;SDS011;64574;48.506;-2.750;2022-12-26T00:05:05;3.85;;;1.02;;
75620;SDS011;64574;48.506;-2.750;2022-12-26T00:07:31;2.95;;;0.90;;
75620;SDS011;64574;48.506;-2.750;2022-12-26T00:09:57;4.60;;;0.88;;
75620;SDS011;64574;48.506;-2.750;2022-12-26T00:12:23;5.47;;;1.20;;
75620;SDS011;64574;48.506;-2.750;2022-12-26T00:14:48;4.20;;;1.55;;
75620;SDS011;64574;48.506;-2.750;2022-12-26T00:17:14;5.57;;;1.55;;
75620;SDS011;64574;48.506;-2.750;2022-12-26T00:19:39;8.38;;;1.30;;
75620;SDS011;64574;48.506;-2.750;2022-12-26T00:22:05;9.93;;;1.98;;
75620;SDS011;64574;48.506;-2.750;2022-12-26T00:24:31;8.32;;;1.10;;
75620;SDS011;64574;48.506;-2.750;2022-12-26T00:26:56;10.88;;;1.90;;
75620;SDS011;64574;48.506;-2.750;2022-12-26T00:29:22;8.20;;;1.15;;
75620;SDS011;64574;48.506;-2.750;2022-12-26T00:31:47;5.55;;;0.90;;
75620;SDS011;64574;48.506;-2.750;2022-12-26T00:34:13;7.32;;;1.60;;
75620;SDS011;64574;48.506;-2.750;2022-12-26T00:36:39;8.27;;;1.15;;
75620;SDS011;64574;48.506;-2.750;2022-12-26T00:39:05;5.28;;;0.82;;
75620;SDS011;64574;48.506;-2.750;2022-12-26T00:41:31;6.40;;;0.80;;
75620;SDS011;64574;48.506;-2.750;2022-12-26T00:43:57;8.85;;;1.08;;
75620;SDS011;64574;48.506;-2.750;2022-12-26T00:46:23;5.85;;;1.25;;
75620;SDS011;64574;48.506;-2.750;2022-12-26T00:48:50;8.77;;;1.63;;
75620;SDS011;64574;48.506;-2.750;2022-12-26T00:51:15;5.20;;;1.10;;
75620;SDS011;64574;48.506;-2.750;2022-12-26T00:53:41;7.00;;;0.88;;
75620;SDS011;64574;48.506;-2.750;2022-12-26T00:56:07;9.25;;;1.10;;
75620;SDS011;64574;48.506;-2.750;2022-12-26T00:58:33;8.48;;;1.20;;
75620;SDS011;64574;48.506;-2.750;2022-12-26T01:01:06;4.35;;;0.98;;
75620;SDS011;64574;48.506;-2.750;2022-12-26T01:03:33;6.68;;;0.98;;
75620;SDS011;64574;48.506;-2.750;2022-12-26T01:06:00;5.25;;;1.10;;
75620;SDS011;64574;48.506;-2.750;2022-12-26T01:08:27;6.95;;;1.27;;
75620;SDS011;64574;48.506;-2.750;2022-12-26T01:10:53;7.35;;;1.05;;
75620;SDS011;64574;48.506;-2.750;2022-12-26T01:13:19;6.60;;;1.08;;
75620;SDS011;64574;48.506;-2.750;2022-12-26T01:15:51;12.30;;;0.80;;
75620;SDS011;64574;48.506;-2.750;2022-12-26T01:18:17;5.03;;;0.90;;
75620;SDS011;64574;48.506;-2.750;2022-12-26T01:20:43;5.20;;;1.10;;
75620;SDS011;64574;48.506;-2.750;2022-12-26T01:23:09;6.88;;;1.10;;
75620;SDS011;64574;48.506;-2.750;2022-12-26T01:25:35;6.68;;;1.13;;
75620;SDS011;64574;48.506;-2.750;2022-12-26T01:28:00;3.22;;;0.70;;
75620;SDS011;64574;48.506;-2.750;2022-12-26T01:30:26;8.20;;;1.52;;
75620;SDS011;64574;48.506;-2.750;2022-12-26T01:32:51;8.45;;;1.73;;
75620;SDS011;64574;48.506;-2.750;2022-12-26T01:35:17;6.28;;;0.63;;
75620;SDS011;64574;48.506;-2.750;2022-12-26T01:37:43;7.47;;;1.00;;
75620;SDS011;64574;48.506;-2.750;2022-12-26T01:40:10;10.10;;;1.30;;
75620;SDS011;64574;48.506;-2.750;2022-12-26T01:42:37;6.05;;;0.95;;
75620;SDS011;64574;48.506;-2.750;2022-12-26T01:47:47;5.63;;;0.80;;
75620;SDS011;64574;48.506;-2.750;2022-12-26T01:50:39;6.70;;;0.82;;
75620;SDS011;64574;48.506;-2.750;2022-12-26T01:53:11;4.50;;;0.90;;
75620;SDS011;64574;48.506;-2.750;2022-12-26T01:55:54;6.30;;;1.02;;
75620;SDS011;64574;48.506;-2.750;2022-12-26T01:58:26;6.45;;;1.10;;
75620;SDS011;64574;48.506;-2.750;2022-12-26T02:00:57;6.32;;;1.10;;
75620;SDS011;64574;48.506;-2.750;2022-12-26T02:03:24;7.88;;;1.15;;
75620;SDS011;64574;48.506;-2.750;2022-12-26T02:06:08;5.25;;;0.80;;
75620;SDS011;64574;48.506;-2.750;2022-12-26T02:08:35;10.10;;;1.10;;
75620;SDS011;64574;48.506;-2.750;2022-12-26T02:11:16;8.25;;;1.10;;
75620;SDS011;64574;48.506;-2.750;2022-12-26T02:13:46;10.07;;;1.30;;
75620;SDS011;64574;48.506;-2.750;2022-12-26T02:16:14;8.13;;;1.10;;
75620;SDS011;64574;48.506;-2.750;2022-12-26T02:18:41;6.15;;;1.20;;
75620;SDS011;64574;48.506;-2.750;2022-12-26T02:48:28;6.90;;;1.40;;
75620;SDS011;64574;48.506;-2.750;2022-12-26T02:51:05;8.57;;;0.80;;
75620;SDS011;64574;48.506;-2.750;2022-12-26T02:54:15;4.07;;;0.70;;
75620;SDS011;64574;48.506;-2.750;2022-12-26T02:57:05;8.18;;;0.90;;
75620;SDS011;64574;48.506;-2.750;2022-12-26T02:59:58;9.32;;;0.90;;
75620;SDS011;64574;48.506;-2.750;2022-12-26T03:02:55;8.45;;;1.20;;
75620;SDS011;64574;48.506;-2.750;2022-12-26T03:08:53;6.60;;;1.10;;
75620;SDS011;64574;48.506;-2.750;2022-12-26T03:11:45;6.05;;;1.10;;
75620;SDS011;64574;48.506;-2.750;2022-12-26T03:14:40;5.78;;;1.23;;
75620;SDS011;64574;48.506;-2.750;2022-12-26T03:17:20;6.43;;;1.10;;
75620;SDS011;64574;48.506;-2.750;2022-12-26T03:22:48;6.93;;;1.00;;
75620;SDS011;64574;48.506;-2.750;2022-12-26T03:28:15;5.03;;;0.60;;
75620;SDS011;64574;48.506;-2.750;2022-12-26T03:30:41;9.20;;;0.85;;
75620;SDS011;64574;48.506;-2.750;2022-12-26T03:33:12;5.28;;;0.80;;
75620;SDS011;64574;48.506;-2.750;2022-12-26T03:36:01;4.90;;;1.15;;
75620;SDS011;64574;48.506;-2.750;2022-12-26T03:38:34;5.32;;;0.70;;
75620;SDS011;64574;48.506;-2.750;2022-12-26T03:41:25;3.03;;;0.73;;
75620;SDS011;64574;48.506;-2.750;2022-12-26T03:44:21;6.35;;;0.82;;
75620;SDS011;64574;48.506;-2.750;2022-12-26T03:50:39;9.90;;;1.13;;
75620;SDS011;64574;48.506;-2.750;2022-12-26T03:53:31;8.43;;;1.38;;
75620;SDS011;64574;48.506;-2.750;2022-12-26T03:56:57;4.60;;;0.90;;
75620;SDS011;64574;48.506;-2.750;2022-12-26T03:59:50;5.10;;;1.17;;
75620;SDS011;64574;48.506;-2.750;2022-12-26T04:02:38;5.55;;;0.60;;
75620;SDS011;64574;48.506;-2.750;2022-12-26T04:05:25;6.65;;;0.82;;
75620;SDS011;64574;48.506;-2.750;2022-12-26T04:08:16;5.15;;;0.85;;
75620;SDS011;64574;48.506;-2.750;2022-12-26T04:11:07;8.85;;;1.52;;
75620;SDS011;64574;48.506;-2.750;2022-12-26T04:14:09;8.48;;;0.77;;
75620;SDS011;64574;48.506;-2.750;2022-12-26T04:26:16;4.65;;;0.77;;
75620;SDS011;64574;48.506;-2.750;2022-12-26T04:29:25;5.60;;;0.60;;
75620;SDS011;64574;48.506;-2.750;2022-12-26T04:32:12;3.05;;;0.47;;
75620;SDS011;64574;48.506;-2.750;2022-12-26T04:35:13;5.30;;;0.80;;
75620;SDS011;64574;48.506;-2.750;2022-12-26T04:38:04;6.45;;;0.98;;
75620;SDS011;64574;48.506;-2.750;2022-12-26T04:40:51;7.05;;;0.95;;
75620;SDS011;64574;48.506;-2.750;2022-12-26T04:43:40;5.55;;;0.60;;
75620;SDS011;64574;48.506;-2.750;2022-12-26T04:46:27;7.60;;;0.70;;
75620;SDS011;64574;48.506;-2.750;2022-12-26T04:48:54;7.45;;;1.10;;
75620;SDS011;64574;48.506;-2.750;2022-12-26T04:54:05;6.47;;;1.33;;
75620;SDS011;64574;48.506;-2.750;2022-12-26T04:56:31;10.13;;;1.02;;
75620;SDS011;64574;48.506;-2.750;2022-12-26T04:58:57;4.07;;;0.90;;
75620;SDS011;64574;48.506;-2.750;2022-12-26T05:01:23;7.05;;;1.38;;
75620;SDS011;64574;48.506;-2.750;2022-12-26T05:04:09;5.43;;;0.88;;
75620;SDS011;64574;48.506;-2.750;2022-12-26T05:06:56;6.13;;;0.60;;
75620;SDS011;64574;48.506;-2.750;2022-12-26T05:09:41;6.55;;;0.88;;
75620;SDS011;64574;48.506;-2.750;2022-12-26T05:12:07;6.68;;;0.60;;
75620;SDS011;64574;48.506;-2.750;2022-12-26T05:14:34;4.15;;;1.00;;
75620;SDS011;64574;48.506;-2.750;2022-12-26T05:17:04;6.72;;;0.98;;
75620;SDS011;64574;48.506;-2.750;2022-12-26T05:19:49;4.80;;;0.70;;
75620;SDS011;64574;48.506;-2.750;2022-12-26T05:22:35;7.75;;;1.33;;
75620;SDS011;64574;48.506;-2.750;2022-12-26T05:25:23;9.95;;;1.30;;
75620;SDS011;64574;48.506;-2.750;2022-12-26T05:28:09;4.70;;;0.75;;
75620;SDS011;64574;48.506;-2.750;2022-12-26T05:31:09;5.53;;;1.00;;
75620;SDS011;64574;48.506;-2.750;2022-12-26T05:33:38;5.32;;;0.75;;
75620;SDS011;64574;48.506;-2.750;2022-12-26T05:36:23;6.05;;;0.90;;
75620;SDS011;64574;48.506;-2.750;2022-12-26T05:38:53;6.65;;;0.80;;
75620;SDS011;64574;48.506;-2.750;2022-12-26T05:41:20;5.95;;;1.00;;
75620;SDS011;64574;48.506;-2.750;2022-12-26T05:43:46;9.57;;;1.17;;
75620;SDS011;64574;48.506;-2.750;2022-12-26T05:46:12;7.43;;;0.68;;
75620;SDS011;64574;48.506;-2.750;2022-12-26T05:48:37;6.35;;;1.83;;
75620;SDS011;64574;48.506;-2.750;2022-12-26T05:51:03;7.45;;;0.98;;
75620;SDS011;64574;48.506;-2.750;2022-12-26T05:53:29;5.40;;;0.82;;
75620;SDS011;64574;48.506;-2.750;2022-12-26T05:56:03;6.85;;;1.15;;
75620;SDS011;64574;48.506;-2.750;2022-12-26T05:58:34;9.55;;;0.85;;
75620;SDS011;64574;48.506;-2.750;2022-12-26T06:01:10;8.75;;;1.17;;
75620;SDS011;64574;48.506;-2.750;2022-12-26T06:03:41;4.80;;;0.70;;
75620;SDS011;64574;48.506;-2.750;2022-12-26T06:06:08;8.98;;;0.90;;
75620;SDS011;64574;48.506;-2.750;2022-12-26T06:08:34;5.95;;;0.95;;
75620;SDS011;64574;48.506;-2.750;2022-12-26T06:11:07;8.52;;;1.63;;
75620;SDS011;64574;48.506;-2.750;2022-12-26T06:13:35;8.45;;;1.00;;
75620;SDS011;64574;48.506;-2.750;2022-12-26T06:16:04;8.35;;;0.80;;
75620;SDS011;64574;48.506;-2.750;2022-12-26T06:18:35;10.32;;;0.95;;
75620;SDS011;64574;48.506;-2.750;2022-12-26T06:21:04;10.73;;;1.35;;
75620;SDS011;64574;48.506;-2.750;2022-12-26T06:23:32;7.22;;;1.23;;
75620;SDS011;64574;48.506;-2.750;2022-12-26T06:25:58;11.45;;;1.10;;
75620;SDS011;64574;48.506;-2.750;2022-12-26T06:28:24;7.68;;;1.40;;
75620;SDS011;64574;48.506;-2.750;2022-12-26T06:30:50;7.90;;;1.10;;
75620;SDS011;64574;48.506;-2.750;2022-12-26T06:33:16;8.90;;;0.90;;
75620;SDS011;64574;48.506;-2.750;2022-12-26T06:35:42;6.85;;;0.70;;
75620;SDS011;64574;48.506;-2.750;2022-12-26T06:38:08;8.90;;;1.08;;
75620;SDS011;64574;48.506;-2.750;2022-12-26T06:40:36;9.38;;;0.93;;
75620;SDS011;64574;48.506;-2.750;2022-12-26T06:43:04;11.93;;;1.45;;
75620;SDS011;64574;48.506;-2.750;2022-12-26T06:45:29;6.53;;;1.30;;
75620;SDS011;64574;48.506;-2.750;2022-12-26T06:47:55;6.38;;;1.27;;
75620;SDS011;64574;48.506;-2.750;2022-12-26T06:50:20;8.88;;;1.10;;
75620;SDS011;64574;48.506;-2.750;2022-12-26T06:52:47;7.80;;;0.93;;
75620;SDS011;64574;48.506;-2.750;2022-12-26T06:55:13;3.38;;;0.88;;
75620;SDS011;64574;48.506;-2.750;2022-12-26T06:57:38;7.07;;;0.93;;
75620;SDS011;64574;48.506;-2.750;2022-12-26T07:00:04;11.38;;;1.20;;
75620;SDS011;64574;48.506;-2.750;2022-12-26T07:02:30;6.30;;;1.17;;
75620;SDS011;64574;48.506;-2.750;2022-12-26T07:04:56;9.75;;;1.67;;
75620;SDS011;64574;48.506;-2.750;2022-12-26T07:07:21;7.93;;;1.00;;
75620;SDS011;64574;48.506;-2.750;2022-12-26T07:09:47;9.45;;;1.20;;
75620;SDS011;64574;48.506;-2.750;2022-12-26T07:12:12;5.45;;;0.80;;
75620;SDS011;64574;48.506;-2.750;2022-12-26T07:14:38;6.75;;;0.90;;
75620;SDS011;64574;48.506;-2.750;2022-12-26T07:17:04;7.72;;;1.02;;
75620;SDS011;64574;48.506;-2.750;2022-12-26T07:19:29;7.00;;;1.10;;
75620;SDS011;64574;48.506;-2.750;2022-12-26T07:21:55;8.40;;;0.93;;
75620;SDS011;64574;48.506;-2.750;2022-12-26T07:24:20;7.88;;;1.10;;
75620;SDS011;64574;48.506;-2.750;2022-12-26T07:26:46;8.65;;;1.15;;
75620;SDS011;64574;48.506;-2.750;2022-12-26T07:29:13;4.95;;;1.05;;
75620;SDS011;64574;48.506;-2.750;2022-12-26T07:31:39;7.50;;;0.88;;
75620;SDS011;64574;48.506;-2.750;2022-12-26T07:34:06;6.72;;;1.30;;
75620;SDS011;64574;48.506;-2.750;2022-12-26T07:36:32;8.68;;;1.25;;
75620;SDS011;64574;48.506;-2.750;2022-12-26T07:38:58;5.30;;;0.90;;
75620;SDS011;64574;48.506;-2.750;2022-12-26T07:41:23;6.13;;;1.17;;
75620;SDS011;64574;48.506;-2.750;2022-12-26T07:44:08;7.00;;;1.20;;
75620;SDS011;64574;48.506;-2.750;2022-12-26T07:46:34;6.55;;;1.02;;
75620;SDS011;64574;48.506;-2.750;2022-12-26T07:49:00;9.13;;;1.30;;
75620;SDS011;64574;48.506;-2.750;2022-12-26T07:51:26;6.80;;;0.93;;
75620;SDS011;64574;48.506;-2.750;2022-12-26T07:53:52;6.65;;;1.85;;
75620;SDS011;64574;48.506;-2.750;2022-12-26T07:56:18;4.72;;;1.00;;
75620;SDS011;64574;48.506;-2.750;2022-12-26T07:58:46;10.32;;;1.77;;
75620;SDS011;64574;48.506;-2.750;2022-12-26T08:01:13;6.03;;;1.48;;
75620;SDS011;64574;48.506;-2.750;2022-12-26T08:03:39;13.55;;;1.38;;
75620;SDS011;64574;48.506;-2.750;2022-12-26T08:06:05;4.38;;;1.00;;
75620;SDS011;64574;48.506;-2.750;2022-12-26T08:08:33;7.20;;;1.50;;
75620;SDS011;64574;48.506;-2.750;2022-12-26T08:10:59;6.63;;;1.63;;
75620;SDS011;64574;48.506;-2.750;2022-12-26T08:15:52;9.52;;;1.35;;
75620;SDS011;64574;48.506;-2.750;2022-12-26T08:18:18;6.47;;;1.10;;
75620;SDS011;64574;48.506;-2.750;2022-12-26T08:20:44;7.03;;;1.20;;
75620;SDS011;64574;48.506;-2.750;2022-12-26T08:23:09;6.60;;;1.25;;
75620;SDS011;64574;48.506;-2.750;2022-12-26T08:25:35;7.90;;;1.20;;
75620;SDS011;64574;48.506;-2.750;2022-12-26T08:28:00;11.20;;;2.22;;
75620;SDS011;64574;48.506;-2.750;2022-12-26T08:30:26;6.65;;;1.70;;
75620;SDS011;64574;48.506;-2.750;2022-12-26T08:32:51;7.75;;;2.03;;
75620;SDS011;64574;48.506;-2.750;2022-12-26T08:35:17;11.88;;;2.03;;
75620;SDS011;64574;48.506;-2.750;2022-12-26T08:37:43;8.50;;;1.90;;
75620;SDS011;64574;48.506;-2.750;2022-12-26T08:40:08;8.30;;;2.47;;
75620;SDS011;64574;48.506;-2.750;2022-12-26T08:42:34;5.53;;;1.80;;
75620;SDS011;64574;48.506;-2.750;2022-12-26T08:45:00;8.40;;;2.00;;
75620;SDS011;64574;48.506;-2.750;2022-12-26T08:47:25;10.10;;;2.05;;
75620;SDS011;64574;48.506;-2.750;2022-12-26T08:49:51;3.08;;;1.38;;
75620;SDS011;64574;48.506;-2.750;2022-12-26T08:52:17;9.13;;;1.88;;
75620;SDS011;64574;48.506;-2.750;2022-12-26T08:54:43;8.85;;;1.50;;
75620;SDS011;64574;48.506;-2.750;2022-12-26T08:57:08;7.40;;;1.50;;
75620;SDS011;64574;48.506;-2.750;2022-12-26T08:59:34;6.20;;;1.70;;
75620;SDS011;64574;48.506;-2.750;2022-12-26T09:01:59;5.10;;;1.00;;
75620;SDS011;64574;48.506;-2.750;2022-12-26T09:04:25;6.45;;;1.23;;
75620;SDS011;64574;48.506;-2.750;2022-12-26T09:06:51;8.05;;;1.17;;
75620;SDS011;64574;48.506;-2.750;2022-12-26T09:09:16;6.72;;;1.38;;
75620;SDS011;64574;48.506;-2.750;2022-12-26T09:11:42;5.05;;;0.98;;
75620;SDS011;64574;48.506;-2.750;2022-12-26T09:14:08;6.05;;;0.98;;
75620;SDS011;64574;48.506;-2.750;2022-12-26T09:16:37;8.80;;;1.73;;
75620;SDS011;64574;48.506;-2.750;2022-12-26T09:19:07;7.25;;;1.40;;
75620;SDS011;64574;48.506;-2.750;2022-12-26T09:21:34;6.35;;;1.20;;
75620;SDS011;64574;48.506;-2.750;2022-12-26T09:24:01;8.70;;;1.40;;
75620;SDS011;64574;48.506;-2.750;2022-12-26T09:26:30;5.65;;;1.45;;
75620;SDS011;64574;48.506;-2.750;2022-12-26T09:28:56;7.75;;;1.30;;
75620;SDS011;64574;48.506;-2.750;2022-12-26T09:31:23;7.68;;;1.92;;
75620;SDS011;64574;48.506;-2.750;2022-12-26T09:33:51;6.55;;;1.45;;
75620;SDS011;64574;48.506;-2.750;2022-12-26T09:36:27;11.10;;;1.77;;
75620;SDS011;64574;48.506;-2.750;2022-12-26T09:38:54;8.10;;;1.45;;
75620;SDS011;64574;48.506;-2.750;2022-12-26T09:49:23;10.70;;;1.33;;
75620;SDS011;64574;48.506;-2.750;2022-12-26T09:51:54;8.63;;;1.45;;
75620;SDS011;64574;48.506;-2.750;2022-12-26T09:56:55;7.07;;;0.85;;
75620;SDS011;64574;48.506;-2.750;2022-12-26T09:59:22;7.82;;;1.13;;
75620;SDS011;64574;48.506;-2.750;2022-12-26T10:01:50;7.78;;;1.27;;
75620;SDS011;64574;48.506;-2.750;2022-12-26T10:06:47;8.57;;;1.13;;
75620;SDS011;64574;48.506;-2.750;2022-12-26T10:09:51;7.13;;;1.40;;
75620;SDS011;64574;48.506;-2.750;2022-12-26T10:15:10;7.63;;;1.85;;
75620;SDS011;64574;48.506;-2.750;2022-12-26T10:23:37;8.98;;;2.22;;
75620;SDS011;64574;48.506;-2.750;2022-12-26T10:31:21;6.90;;;1.73;;
75620;SDS011;64574;48.506;-2.750;2022-12-26T10:33:59;5.18;;;1.75;;
75620;SDS011;64574;48.506;-2.750;2022-12-26T10:39:39;6.03;;;1.33;;
75620;SDS011;64574;48.506;-2.750;2022-12-26T10:42:35;6.03;;;1.30;;
75620;SDS011;64574;48.506;-2.750;2022-12-26T10:47:43;5.47;;;0.73;;
75620;SDS011;64574;48.506;-2.750;2022-12-26T10:50:14;6.05;;;1.08;;
75620;SDS011;64574;48.506;-2.750;2022-12-26T10:52:42;6.43;;;1.23;;
75620;SDS011;64574;48.506;-2.750;2022-12-26T10:55:12;6.18;;;1.15;;
75620;SDS011;64574;48.506;-2.750;2022-12-26T10:57:39;4.18;;;0.80;;
75620;SDS011;64574;48.506;-2.750;2022-12-26T11:02:42;6.95;;;1.13;;
75620;SDS011;64574;48.506;-2.750;2022-12-26T11:05:10;12.20;;;1.80;;
75620;SDS011;64574;48.506;-2.750;2022-12-26T11:07:45;11.50;;;1.48;;
75620;SDS011;64574;48.506;-2.750;2022-12-26T11:10:21;5.43;;;1.08;;
75620;SDS011;64574;48.506;-2.750;2022-12-26T11:12:51;5.55;;;1.08;;
75620;SDS011;64574;48.506;-2.750;2022-12-26T11:15:22;8.85;;;1.55;;
75620;SDS011;64574;48.506;-2.750;2022-12-26T11:18:12;10.32;;;1.13;;
75620;SDS011;64574;48.506;-2.750;2022-12-26T11:20:41;8.07;;;1.45;;
75620;SDS011;64574;48.506;-2.750;2022-12-26T11:23:27;7.35;;;1.48;;
75620;SDS011;64574;48.506;-2.750;2022-12-26T11:25:57;6.10;;;0.90;;
75620;SDS011;64574;48.506;-2.750;2022-12-26T11:28:29;8.90;;;1.35;;
75620;SDS011;64574;48.506;-2.750;2022-12-26T11:30:55;4.97;;;1.02;;
75620;SDS011;64574;48.506;-2.750;2022-12-26T11:35:54;10.02;;;1.10;;
75620;SDS011;64574;48.506;-2.750;2022-12-26T11:38:50;6.28;;;1.00;;
75620;SDS011;64574;48.506;-2.750;2022-12-26T11:44:03;7.38;;;1.35;;
75620;SDS011;64574;48.506;-2.750;2022-12-26T11:49:26;5.07;;;0.95;;
75620;SDS011;64574;48.506;-2.750;2022-12-26T11:51:54;4.40;;;0.90;;
75620;SDS011;64574;48.506;-2.750;2022-12-26T11:54:25;8.00;;;1.00;;
75620;SDS011;64574;48.506;-2.750;2022-12-26T11:59:44;6.65;;;0.80;;
75620;SDS011;64574;48.506;-2.750;2022-12-26T12:02:18;5.70;;;0.80;;
75620;SDS011;64574;48.506;-2.750;2022-12-26T12:04:47;5.50;;;0.77;;
75620;SDS011;64574;48.506;-2.750;2022-12-26T12:12:38;6.72;;;1.13;;
75620;SDS011;64574;48.506;-2.750;2022-12-26T12:15:45;4.90;;;0.80;;
75620;SDS011;64574;48.506;-2.750;2022-12-26T12:26:29;6.10;;;0.88;;
75620;SDS011;64574;48.506;-2.750;2022-12-26T12:42:47;3.63;;;0.73;;
75620;SDS011;64574;48.506;-2.750;2022-12-26T12:45:23;1.50;;;0.50;;
75620;SDS011;64574;48.506;-2.750;2022-12-26T13:02:03;6.22;;;1.00;;
75620;SDS011;64574;48.506;-2.750;2022-12-26T13:04:40;4.53;;;0.57;;
75620;SDS011;64574;48.506;-2.750;2022-12-26T13:07:10;4.47;;;0.98;;
75620;SDS011;64574;48.506;-2.750;2022-12-26T13:10:05;4.25;;;0.70;;
75620;SDS011;64574;48.506;-2.750;2022-12-26T13:12:43;6.68;;;0.90;;
75620;SDS011;64574;48.506;-2.750;2022-12-26T13:17:52;4.03;;;1.10;;
75620;SDS011;64574;48.506;-2.750;2022-12-26T13:20:26;7.15;;;1.40;;
75620;SDS011;64574;48.506;-2.750;2022-12-26T13:22:54;5.80;;;0.95;;
75620;SDS011;64574;48.506;-2.750;2022-12-26T13:25:43;4.78;;;1.13;;
75620;SDS011;64574;48.506;-2.750;2022-12-26T13:28:17;5.43;;;0.90;;
75620;SDS011;64574;48.506;-2.750;2022-12-26T13:30:51;6.20;;;0.90;;
75620;SDS011;64574;48.506;-2.750;2022-12-26T13:33:18;5.53;;;0.88;;
75620;SDS011;64574;48.506;-2.750;2022-12-26T13:35:49;4.03;;;1.00;;
75620;SDS011;64574;48.506;-2.750;2022-12-26T13:38:22;6.50;;;0.93;;
75620;SDS011;64574;48.506;-2.750;2022-12-26T13:40:55;2.60;;;0.60;;
75620;SDS011;64574;48.506;-2.750;2022-12-26T13:43:57;3.30;;;0.52;;
75620;SDS011;64574;48.506;-2.750;2022-12-26T13:51:53;4.40;;;0.85;;
75620;SDS011;64574;48.506;-2.750;2022-12-26T13:54:24;5.28;;;0.77;;
75620;SDS011;64574;48.506;-2.750;2022-12-26T13:57:06;2.72;;;0.90;;
75620;SDS011;64574;48.506;-2.750;2022-12-26T14:05:26;5.43;;;0.80;;
75620;SDS011;64574;48.506;-2.750;2022-12-26T14:08:11;6.25;;;0.90;;
75620;SDS011;64574;48.506;-2.750;2022-12-26T14:13:33;4.78;;;0.75;;
75620;SDS011;64574;48.506;-2.750;2022-12-26T14:33:57;4.97;;;0.70;;
75620;SDS011;64574;48.506;-2.750;2022-12-26T14:36:44;7.00;;;0.90;;
75620;SDS011;64574;48.506;-2.750;2022-12-26T14:39:20;3.20;;;0.90;;
75620;SDS011;64574;48.506;-2.750;2022-12-26T14:44:50;5.88;;;0.93;;
75620;SDS011;64574;48.506;-2.750;2022-12-26T14:47:34;4.00;;;0.60;;
75620;SDS011;64574;48.506;-2.750;2022-12-26T15:00:56;6.57;;;0.88;;
75620;SDS011;64574;48.506;-2.750;2022-12-26T15:15:24;7.40;;;1.80;;
75620;SDS011;64574;48.506;-2.750;2022-12-26T15:25:28;5.60;;;1.00;;
75620;SDS011;64574;48.506;-2.750;2022-12-26T15:30:55;4.10;;;0.65;;
75620;SDS011;64574;48.506;-2.750;2022-12-26T15:33:43;5.00;;;0.80;;
75620;SDS011;64574;48.506;-2.750;2022-12-26T15:50:16;3.30;;;0.70;;
75620;SDS011;64574;48.506;-2.750;2022-12-26T15:55:32;5.05;;;0.93;;
75620;SDS011;64574;48.506;-2.750;2022-12-26T16:01:40;7.80;;;1.05;;
75620;SDS011;64574;48.506;-2.750;2022-12-26T16:09:56;3.83;;;1.25;;
75620;SDS011;64574;48.506;-2.750;2022-12-26T16:20:15;4.95;;;1.40;;
75620;SDS011;64574;48.506;-2.750;2022-12-26T16:23:16;8.68;;;2.28;;
75620;SDS011;64574;48.506;-2.750;2022-12-26T16:25:47;4.70;;;1.40;;
75620;SDS011;64574;48.506;-2.750;2022-12-26T16:28:14;3.63;;;1.25;;
75620;SDS011;64574;48.506;-2.750;2022-12-26T16:30:48;7.35;;;1.65;;
75620;SDS011;64574;48.506;-2.750;2022-12-26T16:33:14;9.82;;;2.28;;
75620;SDS011;64574;48.506;-2.750;2022-12-26T16:35:40;5.80;;;2.00;;
75620;SDS011;64574;48.506;-2.750;2022-12-26T16:38:11;4.35;;;1.52;;
75620;SDS011;64574;48.506;-2.750;2022-12-26T16:40:46;4.57;;;1.92;;
75620;SDS011;64574;48.506;-2.750;2022-12-26T16:43:21;3.75;;;1.60;;
75620;SDS011;64574;48.506;-2.750;2022-12-26T16:46:02;5.85;;;2.08;;
75620;SDS011;64574;48.506;-2.750;2022-12-26T16:48:31;4.95;;;1.95;;
75620;SDS011;64574;48.506;-2.750;2022-12-26T16:51:02;7.35;;;1.90;;
75620;SDS011;64574;48.506;-2.750;2022-12-26T16:59:09;5.80;;;2.38;;
75620;SDS011;64574;48.506;-2.750;2022-12-26T17:01:40;4.22;;;2.10;;
75620;SDS011;64574;48.506;-2.750;2022-12-26T17:04:28;7.00;;;2.35;;
75620;SDS011;64574;48.506;-2.750;2022-12-26T17:07:01;6.40;;;2.83;;
75620;SDS011;64574;48.506;-2.750;2022-12-26T17:09:31;8.30;;;2.85;;
75620;SDS011;64574;48.506;-2.750;2022-12-26T17:12:06;7.10;;;2.88;;
75620;SDS011;64574;48.506;-2.750;2022-12-26T17:14:41;6.30;;;2.97;;
75620;SDS011;64574;48.506;-2.750;2022-12-26T17:19:45;7.10;;;3.00;;
75620;SDS011;64574;48.506;-2.750;2022-12-26T17:25:19;9.27;;;3.45;;
75620;SDS011;64574;48.506;-2.750;2022-12-26T17:33:15;4.25;;;2.20;;
75620;SDS011;64574;48.506;-2.750;2022-12-26T17:35:50;6.55;;;2.38;;
75620;SDS011;64574;48.506;-2.750;2022-12-26T17:38:24;6.60;;;1.90;;
75620;SDS011;64574;48.506;-2.750;2022-12-26T17:40:53;5.80;;;2.45;;
75620;SDS011;64574;48.506;-2.750;2022-12-26T17:43:21;7.45;;;2.30;;
75620;SDS011;64574;48.506;-2.750;2022-12-26T17:45:49;6.38;;;2.40;;
75620;SDS011;64574;48.506;-2.750;2022-12-26T17:48:15;6.85;;;2.30;;
75620;SDS011;64574;48.506;-2.750;2022-12-26T17:50:42;5.72;;;2.30;;
75620;SDS011;64574;48.506;-2.750;2022-12-26T17:53:21;7.15;;;2.22;;
75620;SDS011;64574;48.506;-2.750;2022-12-26T17:55:50;5.95;;;2.60;;
75620;SDS011;64574;48.506;-2.750;2022-12-26T17:58:17;7.10;;;2.80;;
75620;SDS011;64574;48.506;-2.750;2022-12-26T18:00:43;9.48;;;2.90;;
75620;SDS011;64574;48.506;-2.750;2022-12-26T18:03:09;7.90;;;2.53;;
75620;SDS011;64574;48.506;-2.750;2022-12-26T18:05:35;5.80;;;2.92;;
75620;SDS011;64574;48.506;-2.750;2022-12-26T18:08:01;6.35;;;3.10;;
75620;SDS011;64574;48.506;-2.750;2022-12-26T18:10:29;9.10;;;3.30;;
75620;SDS011;64574;48.506;-2.750;2022-12-26T18:12:56;7.03;;;3.75;;
75620;SDS011;64574;48.506;-2.750;2022-12-26T18:15:27;9.48;;;3.22;;
75620;SDS011;64574;48.506;-2.750;2022-12-26T18:17:54;10.45;;;3.63;;
75620;SDS011;64574;48.506;-2.750;2022-12-26T18:20:24;11.00;;;3.97;;
75620;SDS011;64574;48.506;-2.750;2022-12-26T18:22:53;8.77;;;3.97;;
75620;SDS011;64574;48.506;-2.750;2022-12-26T18:25:21;7.72;;;3.17;;
75620;SDS011;64574;48.506;-2.750;2022-12-26T18:27:48;6.40;;;2.92;;
75620;SDS011;64574;48.506;-2.750;2022-12-26T18:30:15;7.30;;;2.80;;
75620;SDS011;64574;48.506;-2.750;2022-12-26T18:32:45;6.55;;;2.80;;
75620;SDS011;64574;48.506;-2.750;2022-12-26T18:35:12;7.43;;;2.25;;
75620;SDS011;64574;48.506;-2.750;2022-12-26T18:37:38;5.55;;;2.60;;
75620;SDS011;64574;48.506;-2.750;2022-12-26T18:40:09;4.28;;;2.35;;
75620;SDS011;64574;48.506;-2.750;2022-12-26T18:42:56;5.40;;;2.08;;
75620;SDS011;64574;48.506;-2.750;2022-12-26T18:45:21;6.90;;;2.80;;
75620;SDS011;64574;48.506;-2.750;2022-12-26T18:47:47;5.38;;;2.30;;
75620;SDS011;64574;48.506;-2.750;2022-12-26T18:50:13;5.65;;;2.22;;
75620;SDS011;64574;48.506;-2.750;2022-12-26T18:52:40;9.85;;;3.42;;
75620;SDS011;64574;48.506;-2.750;2022-12-26T18:55:06;10.40;;;3.70;;
75620;SDS011;64574;48.506;-2.750;2022-12-26T18:57:33;10.90;;;3.55;;
75620;SDS011;64574;48.506;-2.750;2022-12-26T18:59:58;6.65;;;3.15;;
75620;SDS011;64574;48.506;-2.750;2022-12-26T19:02:28;7.95;;;2.67;;
75620;SDS011;64574;48.506;-2.750;2022-12-26T19:04:53;7.47;;;3.08;;
75620;SDS011;64574;48.506;-2.750;2022-12-26T19:07:19;7.55;;;3.00;;
75620;SDS011;64574;48.506;-2.750;2022-12-26T19:09:46;4.93;;;2.60;;
75620;SDS011;64574;48.506;-2.750;2022-12-26T19:12:13;7.40;;;2.30;;
75620;SDS011;64574;48.506;-2.750;2022-12-26T19:14:40;4.07;;;2.42;;
75620;SDS011;64574;48.506;-2.750;2022-12-26T19:17:07;8.95;;;3.00;;
75620;SDS011;64574;48.506;-2.750;2022-12-26T19:19:32;10.85;;;2.92;;
75620;SDS011;64574;48.506;-2.750;2022-12-26T19:21:58;8.10;;;2.30;;
75620;SDS011;64574;48.506;-2.750;2022-12-26T19:24:24;5.85;;;2.35;;
75620;SDS011;64574;48.506;-2.750;2022-12-26T19:26:49;5.75;;;2.33;;